sensor_id;sensor_type;location;lat;lon;timestamp;temperature;humidity
12901;DHT22;6518;50.930;5.344;2023-12-07T00:00:17;3.00;99.90
12901;DHT22;6518;50.930;5.344;2023-12-07T00:02:44;3.00;99.90
12901;DHT22;6518;50.930;5.344;2023-12-07T00:05:11;3.00;99.90
12901;DHT22;6518;50.930;5.344;2023-12-07T00:07:39;3.00;99.90
12901;DHT22;6518;50.930;5.344;2023-12-07T00:10:06;3.10;99.90
12901;DHT22;6518;50.930;5.344;2023-12-07T00:12:33;3.10;99.90
12901;DHT22;6518;50.930;5.344;2023-12-07T00:15:00;3.10;99.90
12901;DHT22;6518;50.930;5.344;2023-12-07T00:17:28;3.10;99.90
12901;DHT22;6518;50.930;5.344;2023-12-07T00:19:55;3.20;99.90
12901;DHT22;6518;50.930;5.344;2023-12-07T00:22:22;3.10;99.90
12901;DHT22;6518;50.930;5.344;2023-12-07T00:24:51;3.20;99.90
12901;DHT22;6518;50.930;5.344;2023-12-07T00:27:24;3.10;99.90
12901;DHT22;6518;50.930;5.344;2023-12-07T00:29:51;3.00;99.90
12901;DHT22;6518;50.930;5.344;2023-12-07T00:32:21;3.00;99.90
12901;DHT22;6518;50.930;5.344;2023-12-07T00:34:47;3.00;99.90
12901;DHT22;6518;50.930;5.344;2023-12-07T00:37:14;3.00;99.90
12901;DHT22;6518;50.930;5.344;2023-12-07T00:39:42;3.00;99.90
12901;DHT22;6518;50.930;5.344;2023-12-07T00:42:10;3.10;99.90
12901;DHT22;6518;50.930;5.344;2023-12-07T00:44:39;3.00;99.90
12901;DHT22;6518;50.930;5.344;2023-12-07T00:47:06;3.10;99.90
12901;DHT22;6518;50.930;5.344;2023-12-07T00:49:33;3.10;99.90
12901;DHT22;6518;50.930;5.344;2023-12-07T00:52:00;3.10;99.90
12901;DHT22;6518;50.930;5.344;2023-12-07T00:54:28;3.10;99.90
12901;DHT22;6518;50.930;5.344;2023-12-07T00:56:54;3.20;99.90
12901;DHT22;6518;50.930;5.344;2023-12-07T00:59:23;3.10;99.90
12901;DHT22;6518;50.930;5.344;2023-12-07T01:01:50;3.20;99.90
12901;DHT22;6518;50.930;5.344;2023-12-07T01:04:17;3.20;99.90
12901;DHT22;6518;50.930;5.344;2023-12-07T01:06:44;3.20;99.90
12901;DHT22;6518;50.930;5.344;2023-12-07T01:09:11;3.20;99.90
12901;DHT22;6518;50.930;5.344;2023-12-07T01:11:39;3.20;99.90
12901;DHT22;6518;50.930;5.344;2023-12-07T01:14:06;3.20;99.90
12901;DHT22;6518;50.930;5.344;2023-12-07T01:16:34;3.20;99.90
12901;DHT22;6518;50.930;5.344;2023-12-07T01:19:01;3.30;99.90
12901;DHT22;6518;50.930;5.344;2023-12-07T01:21:28;3.30;99.90
12901;DHT22;6518;50.930;5.344;2023-12-07T01:23:55;3.30;99.90
12901;DHT22;6518;50.930;5.344;2023-12-07T01:26:23;3.30;99.90
12901;DHT22;6518;50.930;5.344;2023-12-07T01:28:50;3.30;99.90
12901;DHT22;6518;50.930;5.344;2023-12-07T01:31:17;3.30;99.90
12901;DHT22;6518;50.930;5.344;2023-12-07T01:33:46;3.30;99.90
12901;DHT22;6518;50.930;5.344;2023-12-07T01:36:13;3.30;99.90
12901;DHT22;6518;50.930;5.344;2023-12-07T01:38:39;3.30;99.90
12901;DHT22;6518;50.930;5.344;2023-12-07T01:41:06;3.30;99.90
12901;DHT22;6518;50.930;5.344;2023-12-07T01:43:34;3.30;99.90
12901;DHT22;6518;50.930;5.344;2023-12-07T01:46:01;3.30;99.90
12901;DHT22;6518;50.930;5.344;2023-12-07T01:48:29;3.30;99.90
12901;DHT22;6518;50.930;5.344;2023-12-07T01:50:58;3.30;99.90
12901;DHT22;6518;50.930;5.344;2023-12-07T01:53:26;3.30;99.90
12901;DHT22;6518;50.930;5.344;2023-12-07T01:55:54;3.30;99.90
12901;DHT22;6518;50.930;5.344;2023-12-07T01:58:21;3.30;99.90
12901;DHT22;6518;50.930;5.344;2023-12-07T02:00:48;3.20;99.90
12901;DHT22;6518;50.930;5.344;2023-12-07T02:03:16;3.20;99.90
12901;DHT22;6518;50.930;5.344;2023-12-07T02:05:47;3.20;99.90
12901;DHT22;6518;50.930;5.344;2023-12-07T02:08:16;3.20;99.90
12901;DHT22;6518;50.930;5.344;2023-12-07T02:10:43;3.20;99.90
12901;DHT22;6518;50.930;5.344;2023-12-07T02:13:10;3.20;99.90
12901;DHT22;6518;50.930;5.344;2023-12-07T02:15:37;3.20;99.90
12901;DHT22;6518;50.930;5.344;2023-12-07T02:18:13;3.20;99.90
12901;DHT22;6518;50.930;5.344;2023-12-07T02:20:44;3.30;99.90
12901;DHT22;6518;50.930;5.344;2023-12-07T02:23:15;3.30;99.90
12901;DHT22;6518;50.930;5.344;2023-12-07T02:25:53;3.30;99.90
12901;DHT22;6518;50.930;5.344;2023-12-07T02:28:22;3.30;99.90
12901;DHT22;6518;50.930;5.344;2023-12-07T02:30:49;3.30;99.90
12901;DHT22;6518;50.930;5.344;2023-12-07T02:33:16;3.30;99.90
12901;DHT22;6518;50.930;5.344;2023-12-07T02:35:43;3.30;99.90
12901;DHT22;6518;50.930;5.344;2023-12-07T02:38:10;3.30;99.90
12901;DHT22;6518;50.930;5.344;2023-12-07T02:40:37;3.20;99.90
12901;DHT22;6518;50.930;5.344;2023-12-07T02:43:06;3.20;99.90
12901;DHT22;6518;50.930;5.344;2023-12-07T02:45:35;3.30;99.90
12901;DHT22;6518;50.930;5.344;2023-12-07T02:48:02;3.30;99.90
12901;DHT22;6518;50.930;5.344;2023-12-07T02:50:29;3.20;99.90
12901;DHT22;6518;50.930;5.344;2023-12-07T02:52:55;3.20;99.90
12901;DHT22;6518;50.930;5.344;2023-12-07T02:55:22;3.20;99.90
12901;DHT22;6518;50.930;5.344;2023-12-07T02:57:49;3.20;99.90
12901;DHT22;6518;50.930;5.344;2023-12-07T03:00:17;3.20;99.90
12901;DHT22;6518;50.930;5.344;2023-12-07T03:02:45;3.20;99.90
12901;DHT22;6518;50.930;5.344;2023-12-07T03:05:13;3.20;99.90
12901;DHT22;6518;50.930;5.344;2023-12-07T03:07:40;3.20;99.90
12901;DHT22;6518;50.930;5.344;2023-12-07T03:10:08;3.20;99.90
12901;DHT22;6518;50.930;5.344;2023-12-07T03:12:34;3.20;99.90
12901;DHT22;6518;50.930;5.344;2023-12-07T03:15:01;3.20;99.90
12901;DHT22;6518;50.930;5.344;2023-12-07T03:17:30;3.20;99.90
12901;DHT22;6518;50.930;5.344;2023-12-07T03:19:58;3.20;99.90
12901;DHT22;6518;50.930;5.344;2023-12-07T03:22:25;3.30;99.90
12901;DHT22;6518;50.930;5.344;2023-12-07T03:24:52;3.30;99.90
12901;DHT22;6518;50.930;5.344;2023-12-07T03:27:19;3.20;99.90
12901;DHT22;6518;50.930;5.344;2023-12-07T03:29:46;3.30;99.90
12901;DHT22;6518;50.930;5.344;2023-12-07T03:32:13;3.30;99.90
12901;DHT22;6518;50.930;5.344;2023-12-07T03:34:40;3.30;99.90
12901;DHT22;6518;50.930;5.344;2023-12-07T03:37:08;3.30;99.90
12901;DHT22;6518;50.930;5.344;2023-12-07T03:39:35;3.30;99.90
12901;DHT22;6518;50.930;5.344;2023-12-07T03:42:03;3.30;99.90
12901;DHT22;6518;50.930;5.344;2023-12-07T03:44:30;3.30;99.90
12901;DHT22;6518;50.930;5.344;2023-12-07T03:46:57;3.30;99.90
12901;DHT22;6518;50.930;5.344;2023-12-07T03:49:23;3.30;99.90
12901;DHT22;6518;50.930;5.344;2023-12-07T03:51:50;3.30;99.90
12901;DHT22;6518;50.930;5.344;2023-12-07T03:54:18;3.70;99.90
12901;DHT22;6518;50.930;5.344;2023-12-07T03:56:45;3.20;99.90
12901;DHT22;6518;50.930;5.344;2023-12-07T03:59:12;3.30;99.90
12901;DHT22;6518;50.930;5.344;2023-12-07T04:01:39;3.30;99.90
12901;DHT22;6518;50.930;5.344;2023-12-07T04:04:06;3.30;99.90
12901;DHT22;6518;50.930;5.344;2023-12-07T04:06:33;3.30;99.90
12901;DHT22;6518;50.930;5.344;2023-12-07T04:09:00;3.30;99.90
12901;DHT22;6518;50.930;5.344;2023-12-07T04:11:29;3.30;99.90
12901;DHT22;6518;50.930;5.344;2023-12-07T04:13:56;3.30;99.90
12901;DHT22;6518;50.930;5.344;2023-12-07T04:16:23;3.20;99.90
12901;DHT22;6518;50.930;5.344;2023-12-07T04:18:50;3.30;99.90
12901;DHT22;6518;50.930;5.344;2023-12-07T04:21:17;3.30;99.90
12901;DHT22;6518;50.930;5.344;2023-12-07T04:23:45;3.30;99.90
12901;DHT22;6518;50.930;5.344;2023-12-07T04:26:11;3.30;99.90
12901;DHT22;6518;50.930;5.344;2023-12-07T04:28:40;3.30;99.90
12901;DHT22;6518;50.930;5.344;2023-12-07T04:31:07;3.30;99.90
12901;DHT22;6518;50.930;5.344;2023-12-07T04:33:34;3.30;99.90
12901;DHT22;6518;50.930;5.344;2023-12-07T04:36:01;3.30;99.90
12901;DHT22;6518;50.930;5.344;2023-12-07T04:38:28;3.40;99.90
12901;DHT22;6518;50.930;5.344;2023-12-07T04:40:54;3.40;99.90
12901;DHT22;6518;50.930;5.344;2023-12-07T04:43:24;3.40;99.90
12901;DHT22;6518;50.930;5.344;2023-12-07T04:45:52;3.30;99.90
12901;DHT22;6518;50.930;5.344;2023-12-07T04:48:19;3.30;99.90
12901;DHT22;6518;50.930;5.344;2023-12-07T04:50:46;3.40;99.90
12901;DHT22;6518;50.930;5.344;2023-12-07T04:53:13;3.30;99.90
12901;DHT22;6518;50.930;5.344;2023-12-07T04:55:40;3.30;99.90
12901;DHT22;6518;50.930;5.344;2023-12-07T04:58:09;3.30;99.90
12901;DHT22;6518;50.930;5.344;2023-12-07T05:00:36;3.30;99.90
12901;DHT22;6518;50.930;5.344;2023-12-07T05:03:05;3.30;99.90
12901;DHT22;6518;50.930;5.344;2023-12-07T05:05:32;3.30;99.90
12901;DHT22;6518;50.930;5.344;2023-12-07T05:07:59;3.40;99.90
12901;DHT22;6518;50.930;5.344;2023-12-07T05:10:26;3.30;99.90
12901;DHT22;6518;50.930;5.344;2023-12-07T05:12:53;3.20;99.90
12901;DHT22;6518;50.930;5.344;2023-12-07T05:15:21;3.20;99.90
12901;DHT22;6518;50.930;5.344;2023-12-07T05:17:48;3.20;99.90
12901;DHT22;6518;50.930;5.344;2023-12-07T05:20:17;3.20;99.90
12901;DHT22;6518;50.930;5.344;2023-12-07T05:22:47;3.20;99.90
12901;DHT22;6518;50.930;5.344;2023-12-07T05:25:14;3.20;99.90
12901;DHT22;6518;50.930;5.344;2023-12-07T05:27:41;3.20;99.90
12901;DHT22;6518;50.930;5.344;2023-12-07T05:30:09;3.20;99.90
12901;DHT22;6518;50.930;5.344;2023-12-07T05:32:37;3.20;99.90
12901;DHT22;6518;50.930;5.344;2023-12-07T05:35:05;3.20;99.90
12901;DHT22;6518;50.930;5.344;2023-12-07T05:37:34;3.30;99.90
12901;DHT22;6518;50.930;5.344;2023-12-07T05:40:00;3.30;99.90
12901;DHT22;6518;50.930;5.344;2023-12-07T05:42:28;3.30;99.90
12901;DHT22;6518;50.930;5.344;2023-12-07T05:44:55;3.30;99.90
12901;DHT22;6518;50.930;5.344;2023-12-07T05:47:22;3.30;99.90
12901;DHT22;6518;50.930;5.344;2023-12-07T05:49:49;3.30;99.90
12901;DHT22;6518;50.930;5.344;2023-12-07T05:52:16;3.30;99.90
12901;DHT22;6518;50.930;5.344;2023-12-07T05:54:44;3.40;99.90
12901;DHT22;6518;50.930;5.344;2023-12-07T05:57:12;3.40;99.90
12901;DHT22;6518;50.930;5.344;2023-12-07T05:59:40;3.40;99.90
12901;DHT22;6518;50.930;5.344;2023-12-07T06:02:08;3.40;99.90
12901;DHT22;6518;50.930;5.344;2023-12-07T06:04:35;3.40;99.90
12901;DHT22;6518;50.930;5.344;2023-12-07T06:07:03;3.40;99.90
12901;DHT22;6518;50.930;5.344;2023-12-07T06:09:30;3.40;99.90
12901;DHT22;6518;50.930;5.344;2023-12-07T06:11:59;3.50;99.90
12901;DHT22;6518;50.930;5.344;2023-12-07T06:14:26;3.40;99.90
12901;DHT22;6518;50.930;5.344;2023-12-07T06:16:53;3.40;99.90
12901;DHT22;6518;50.930;5.344;2023-12-07T06:19:20;3.40;99.90
12901;DHT22;6518;50.930;5.344;2023-12-07T06:21:48;3.40;99.90
12901;DHT22;6518;50.930;5.344;2023-12-07T06:24:15;3.40;99.90
12901;DHT22;6518;50.930;5.344;2023-12-07T06:26:42;3.40;99.90
12901;DHT22;6518;50.930;5.344;2023-12-07T06:29:11;3.40;99.90
12901;DHT22;6518;50.930;5.344;2023-12-07T06:31:43;3.40;99.90
12901;DHT22;6518;50.930;5.344;2023-12-07T06:34:10;3.40;99.90
12901;DHT22;6518;50.930;5.344;2023-12-07T06:36:37;3.40;99.90
12901;DHT22;6518;50.930;5.344;2023-12-07T06:39:04;3.40;99.90
12901;DHT22;6518;50.930;5.344;2023-12-07T06:41:31;3.40;99.90
12901;DHT22;6518;50.930;5.344;2023-12-07T06:43:58;3.40;99.90
12901;DHT22;6518;50.930;5.344;2023-12-07T06:46:27;3.40;99.90
12901;DHT22;6518;50.930;5.344;2023-12-07T06:48:54;3.40;99.90
12901;DHT22;6518;50.930;5.344;2023-12-07T06:51:21;3.40;99.90
12901;DHT22;6518;50.930;5.344;2023-12-07T06:53:48;3.40;99.90
12901;DHT22;6518;50.930;5.344;2023-12-07T06:56:15;3.40;99.90
12901;DHT22;6518;50.930;5.344;2023-12-07T06:58:42;3.40;99.90
12901;DHT22;6518;50.930;5.344;2023-12-07T07:01:09;3.40;99.90
12901;DHT22;6518;50.930;5.344;2023-12-07T07:03:37;3.40;99.90
12901;DHT22;6518;50.930;5.344;2023-12-07T07:06:04;3.40;99.90
12901;DHT22;6518;50.930;5.344;2023-12-07T07:08:31;3.40;99.90
12901;DHT22;6518;50.930;5.344;2023-12-07T07:10:58;3.40;99.90
12901;DHT22;6518;50.930;5.344;2023-12-07T07:13:25;3.40;99.90
12901;DHT22;6518;50.930;5.344;2023-12-07T07:15:52;3.40;99.90
12901;DHT22;6518;50.930;5.344;2023-12-07T07:18:20;3.40;99.90
12901;DHT22;6518;50.930;5.344;2023-12-07T07:20:50;3.40;99.90
12901;DHT22;6518;50.930;5.344;2023-12-07T07:23:17;3.30;99.90
12901;DHT22;6518;50.930;5.344;2023-12-07T07:25:44;3.30;99.90
12901;DHT22;6518;50.930;5.344;2023-12-07T07:28:11;3.30;99.90
12901;DHT22;6518;50.930;5.344;2023-12-07T07:30:38;3.30;99.90
12901;DHT22;6518;50.930;5.344;2023-12-07T07:33:05;3.30;99.90
12901;DHT22;6518;50.930;5.344;2023-12-07T07:35:33;3.20;99.90
12901;DHT22;6518;50.930;5.344;2023-12-07T07:38:01;3.30;99.90
12901;DHT22;6518;50.930;5.344;2023-12-07T07:40:28;3.20;99.90
12901;DHT22;6518;50.930;5.344;2023-12-07T07:42:55;3.20;99.90
12901;DHT22;6518;50.930;5.344;2023-12-07T07:45:22;3.20;99.90
12901;DHT22;6518;50.930;5.344;2023-12-07T07:47:50;3.20;99.90
12901;DHT22;6518;50.930;5.344;2023-12-07T07:50:18;3.10;99.90
12901;DHT22;6518;50.930;5.344;2023-12-07T07:52:45;3.10;99.90
12901;DHT22;6518;50.930;5.344;2023-12-07T07:55:13;3.10;99.90
12901;DHT22;6518;50.930;5.344;2023-12-07T07:57:40;3.10;99.90
12901;DHT22;6518;50.930;5.344;2023-12-07T08:00:09;3.10;99.90
12901;DHT22;6518;50.930;5.344;2023-12-07T08:02:38;3.10;99.90
12901;DHT22;6518;50.930;5.344;2023-12-07T08:05:06;3.10;99.90
12901;DHT22;6518;50.930;5.344;2023-12-07T08:07:33;3.10;99.90
12901;DHT22;6518;50.930;5.344;2023-12-07T08:10:00;3.10;99.90
12901;DHT22;6518;50.930;5.344;2023-12-07T08:12:30;3.10;99.90
12901;DHT22;6518;50.930;5.344;2023-12-07T08:14:57;3.10;99.90
12901;DHT22;6518;50.930;5.344;2023-12-07T08:17:24;3.10;99.90
12901;DHT22;6518;50.930;5.344;2023-12-07T08:19:52;3.10;99.90
12901;DHT22;6518;50.930;5.344;2023-12-07T08:22:18;3.20;99.90
12901;DHT22;6518;50.930;5.344;2023-12-07T08:24:46;3.20;99.90
12901;DHT22;6518;50.930;5.344;2023-12-07T08:27:14;3.20;99.90
12901;DHT22;6518;50.930;5.344;2023-12-07T08:29:42;3.30;99.90
12901;DHT22;6518;50.930;5.344;2023-12-07T08:32:09;3.30;99.90
12901;DHT22;6518;50.930;5.344;2023-12-07T08:34:37;3.30;99.90
12901;DHT22;6518;50.930;5.344;2023-12-07T08:37:04;3.30;99.90
12901;DHT22;6518;50.930;5.344;2023-12-07T08:39:31;3.30;99.90
12901;DHT22;6518;50.930;5.344;2023-12-07T08:41:58;3.30;99.90
12901;DHT22;6518;50.930;5.344;2023-12-07T08:44:29;3.40;99.90
12901;DHT22;6518;50.930;5.344;2023-12-07T08:46:58;3.40;99.90
12901;DHT22;6518;50.930;5.344;2023-12-07T08:49:25;3.50;99.90
12901;DHT22;6518;50.930;5.344;2023-12-07T08:51:52;3.50;99.90
12901;DHT22;6518;50.930;5.344;2023-12-07T08:54:19;3.60;99.90
12901;DHT22;6518;50.930;5.344;2023-12-07T08:56:46;3.60;99.90
12901;DHT22;6518;50.930;5.344;2023-12-07T08:59:13;3.60;99.90
12901;DHT22;6518;50.930;5.344;2023-12-07T09:01:40;3.60;99.90
12901;DHT22;6518;50.930;5.344;2023-12-07T09:04:09;3.70;99.90
12901;DHT22;6518;50.930;5.344;2023-12-07T09:06:37;3.70;99.90
12901;DHT22;6518;50.930;5.344;2023-12-07T09:09:07;3.70;99.90
12901;DHT22;6518;50.930;5.344;2023-12-07T09:11:43;3.70;99.90
12901;DHT22;6518;50.930;5.344;2023-12-07T09:14:10;3.80;99.90
12901;DHT22;6518;50.930;5.344;2023-12-07T09:16:43;3.80;99.90
12901;DHT22;6518;50.930;5.344;2023-12-07T09:19:11;3.80;99.90
12901;DHT22;6518;50.930;5.344;2023-12-07T09:21:39;3.90;99.90
12901;DHT22;6518;50.930;5.344;2023-12-07T09:24:07;3.90;99.90
12901;DHT22;6518;50.930;5.344;2023-12-07T09:26:34;3.90;99.90
12901;DHT22;6518;50.930;5.344;2023-12-07T09:29:01;3.90;99.90
12901;DHT22;6518;50.930;5.344;2023-12-07T09:31:29;4.00;99.90
12901;DHT22;6518;50.930;5.344;2023-12-07T09:33:56;4.00;99.90
12901;DHT22;6518;50.930;5.344;2023-12-07T09:36:24;4.10;99.90
12901;DHT22;6518;50.930;5.344;2023-12-07T09:38:53;4.10;99.90
12901;DHT22;6518;50.930;5.344;2023-12-07T09:41:20;4.10;99.90
12901;DHT22;6518;50.930;5.344;2023-12-07T09:43:48;4.20;99.90
12901;DHT22;6518;50.930;5.344;2023-12-07T09:46:16;4.20;99.90
12901;DHT22;6518;50.930;5.344;2023-12-07T09:48:43;4.20;99.90
12901;DHT22;6518;50.930;5.344;2023-12-07T09:51:11;4.30;99.90
12901;DHT22;6518;50.930;5.344;2023-12-07T09:53:39;4.30;99.90
12901;DHT22;6518;50.930;5.344;2023-12-07T09:56:09;4.30;99.90
12901;DHT22;6518;50.930;5.344;2023-12-07T09:58:36;4.40;99.90
12901;DHT22;6518;50.930;5.344;2023-12-07T10:01:04;4.50;99.90
12901;DHT22;6518;50.930;5.344;2023-12-07T10:03:31;4.50;99.90
12901;DHT22;6518;50.930;5.344;2023-12-07T10:05:58;4.50;99.90
12901;DHT22;6518;50.930;5.344;2023-12-07T10:08:26;4.50;99.90
12901;DHT22;6518;50.930;5.344;2023-12-07T10:11:04;4.50;99.90
12901;DHT22;6518;50.930;5.344;2023-12-07T10:13:31;4.60;99.90
12901;DHT22;6518;50.930;5.344;2023-12-07T10:16:09;4.70;99.90
12901;DHT22;6518;50.930;5.344;2023-12-07T10:18:37;4.70;99.90
12901;DHT22;6518;50.930;5.344;2023-12-07T10:21:06;4.70;99.90
12901;DHT22;6518;50.930;5.344;2023-12-07T10:23:35;4.70;99.90
12901;DHT22;6518;50.930;5.344;2023-12-07T10:26:05;4.70;99.90
12901;DHT22;6518;50.930;5.344;2023-12-07T10:28:34;4.70;99.90
12901;DHT22;6518;50.930;5.344;2023-12-07T10:31:04;4.70;99.90
12901;DHT22;6518;50.930;5.344;2023-12-07T10:33:34;4.80;99.90
12901;DHT22;6518;50.930;5.344;2023-12-07T10:36:03;4.80;99.90
12901;DHT22;6518;50.930;5.344;2023-12-07T10:38:33;4.80;99.90
12901;DHT22;6518;50.930;5.344;2023-12-07T10:41:05;4.90;99.90
12901;DHT22;6518;50.930;5.344;2023-12-07T10:43:37;4.90;99.90
12901;DHT22;6518;50.930;5.344;2023-12-07T10:46:05;5.00;99.90
12901;DHT22;6518;50.930;5.344;2023-12-07T10:48:33;5.00;99.90
12901;DHT22;6518;50.930;5.344;2023-12-07T10:51:05;5.00;99.90
12901;DHT22;6518;50.930;5.344;2023-12-07T10:53:37;5.10;99.90
12901;DHT22;6518;50.930;5.344;2023-12-07T10:56:11;5.10;99.90
12901;DHT22;6518;50.930;5.344;2023-12-07T10:58:41;5.20;99.90
12901;DHT22;6518;50.930;5.344;2023-12-07T11:01:11;5.20;99.90
12901;DHT22;6518;50.930;5.344;2023-12-07T11:03:39;5.20;99.90
12901;DHT22;6518;50.930;5.344;2023-12-07T11:06:07;5.20;99.90
12901;DHT22;6518;50.930;5.344;2023-12-07T11:08:38;5.20;99.90
12901;DHT22;6518;50.930;5.344;2023-12-07T11:11:12;5.20;99.90
12901;DHT22;6518;50.930;5.344;2023-12-07T11:13:46;5.30;99.90
12901;DHT22;6518;50.930;5.344;2023-12-07T11:16:15;5.30;99.90
12901;DHT22;6518;50.930;5.344;2023-12-07T11:18:42;5.40;99.90
12901;DHT22;6518;50.930;5.344;2023-12-07T11:21:10;5.40;99.90
12901;DHT22;6518;50.930;5.344;2023-12-07T11:23:37;5.50;99.90
12901;DHT22;6518;50.930;5.344;2023-12-07T11:26:04;5.60;99.90
12901;DHT22;6518;50.930;5.344;2023-12-07T11:28:37;5.60;99.90
12901;DHT22;6518;50.930;5.344;2023-12-07T11:31:06;5.70;99.90
12901;DHT22;6518;50.930;5.344;2023-12-07T11:33:37;5.70;99.90
12901;DHT22;6518;50.930;5.344;2023-12-07T11:36:06;5.80;99.90
12901;DHT22;6518;50.930;5.344;2023-12-07T11:38:34;5.90;99.90
12901;DHT22;6518;50.930;5.344;2023-12-07T11:41:02;5.90;99.90
12901;DHT22;6518;50.930;5.344;2023-12-07T11:43:42;5.90;99.90
12901;DHT22;6518;50.930;5.344;2023-12-07T11:46:12;5.90;99.90
12901;DHT22;6518;50.930;5.344;2023-12-07T11:48:53;5.90;99.90
12901;DHT22;6518;50.930;5.344;2023-12-07T11:51:20;5.90;99.90
12901;DHT22;6518;50.930;5.344;2023-12-07T11:53:47;5.80;99.90
12901;DHT22;6518;50.930;5.344;2023-12-07T11:56:17;5.80;99.90
12901;DHT22;6518;50.930;5.344;2023-12-07T11:58:48;5.80;99.90
12901;DHT22;6518;50.930;5.344;2023-12-07T12:01:17;5.80;99.90
12901;DHT22;6518;50.930;5.344;2023-12-07T12:03:44;5.80;99.90
12901;DHT22;6518;50.930;5.344;2023-12-07T12:06:11;5.70;99.90
12901;DHT22;6518;50.930;5.344;2023-12-07T12:08:40;5.70;99.90
12901;DHT22;6518;50.930;5.344;2023-12-07T12:11:08;5.60;99.90
12901;DHT22;6518;50.930;5.344;2023-12-07T12:13:35;5.60;99.90
12901;DHT22;6518;50.930;5.344;2023-12-07T12:16:05;5.50;99.90
12901;DHT22;6518;50.930;5.344;2023-12-07T12:18:33;5.60;99.90
12901;DHT22;6518;50.930;5.344;2023-12-07T12:21:01;5.60;99.90
12901;DHT22;6518;50.930;5.344;2023-12-07T12:23:28;5.60;99.90
12901;DHT22;6518;50.930;5.344;2023-12-07T12:25:55;5.70;99.90
12901;DHT22;6518;50.930;5.344;2023-12-07T12:28:23;5.70;99.90
12901;DHT22;6518;50.930;5.344;2023-12-07T12:30:51;5.80;99.90
12901;DHT22;6518;50.930;5.344;2023-12-07T12:33:19;5.80;99.90
12901;DHT22;6518;50.930;5.344;2023-12-07T12:35:46;5.80;99.90
12901;DHT22;6518;50.930;5.344;2023-12-07T12:38:26;5.80;99.90
12901;DHT22;6518;50.930;5.344;2023-12-07T12:40:54;5.80;99.90
12901;DHT22;6518;50.930;5.344;2023-12-07T12:43:21;5.80;99.90
12901;DHT22;6518;50.930;5.344;2023-12-07T12:45:48;5.80;99.90
12901;DHT22;6518;50.930;5.344;2023-12-07T12:48:15;5.80;99.90
12901;DHT22;6518;50.930;5.344;2023-12-07T12:50:46;5.70;99.90
12901;DHT22;6518;50.930;5.344;2023-12-07T12:53:14;5.70;99.90
12901;DHT22;6518;50.930;5.344;2023-12-07T12:55:42;5.60;99.90
12901;DHT22;6518;50.930;5.344;2023-12-07T12:58:10;5.60;99.90
12901;DHT22;6518;50.930;5.344;2023-12-07T13:00:38;5.60;99.90
12901;DHT22;6518;50.930;5.344;2023-12-07T13:03:06;5.50;99.90
12901;DHT22;6518;50.930;5.344;2023-12-07T13:05:33;5.50;99.90
12901;DHT22;6518;50.930;5.344;2023-12-07T13:08:03;5.40;99.90
12901;DHT22;6518;50.930;5.344;2023-12-07T13:10:30;5.40;99.90
12901;DHT22;6518;50.930;5.344;2023-12-07T13:12:57;5.40;99.90
12901;DHT22;6518;50.930;5.344;2023-12-07T13:15:24;5.40;99.90
12901;DHT22;6518;50.930;5.344;2023-12-07T13:17:51;5.40;99.90
12901;DHT22;6518;50.930;5.344;2023-12-07T13:20:18;5.40;99.90
12901;DHT22;6518;50.930;5.344;2023-12-07T13:22:45;5.40;99.90
12901;DHT22;6518;50.930;5.344;2023-12-07T13:25:14;5.40;99.90
12901;DHT22;6518;50.930;5.344;2023-12-07T13:27:41;5.30;99.90
12901;DHT22;6518;50.930;5.344;2023-12-07T13:30:09;5.40;99.90
12901;DHT22;6518;50.930;5.344;2023-12-07T13:32:36;5.40;99.90
12901;DHT22;6518;50.930;5.344;2023-12-07T13:35:04;5.30;99.90
12901;DHT22;6518;50.930;5.344;2023-12-07T13:37:31;5.30;99.90
12901;DHT22;6518;50.930;5.344;2023-12-07T13:39:59;5.30;99.90
12901;DHT22;6518;50.930;5.344;2023-12-07T13:42:31;5.30;99.90
12901;DHT22;6518;50.930;5.344;2023-12-07T13:44:59;5.30;99.90
12901;DHT22;6518;50.930;5.344;2023-12-07T13:47:26;5.30;99.90
12901;DHT22;6518;50.930;5.344;2023-12-07T13:49:57;5.20;99.90
12901;DHT22;6518;50.930;5.344;2023-12-07T13:52:25;5.10;99.90
12901;DHT22;6518;50.930;5.344;2023-12-07T13:54:52;5.00;99.90
12901;DHT22;6518;50.930;5.344;2023-12-07T13:57:19;4.90;99.90
12901;DHT22;6518;50.930;5.344;2023-12-07T13:59:48;4.80;99.90
12901;DHT22;6518;50.930;5.344;2023-12-07T14:02:16;4.80;99.90
12901;DHT22;6518;50.930;5.344;2023-12-07T14:04:43;4.70;99.90
12901;DHT22;6518;50.930;5.344;2023-12-07T14:07:12;4.70;99.90
12901;DHT22;6518;50.930;5.344;2023-12-07T14:09:40;4.70;99.90
12901;DHT22;6518;50.930;5.344;2023-12-07T14:12:11;4.70;99.90
12901;DHT22;6518;50.930;5.344;2023-12-07T14:14:44;4.60;99.90
12901;DHT22;6518;50.930;5.344;2023-12-07T14:17:14;4.60;99.90
12901;DHT22;6518;50.930;5.344;2023-12-07T14:19:41;4.60;99.90
12901;DHT22;6518;50.930;5.344;2023-12-07T14:22:09;4.60;99.90
12901;DHT22;6518;50.930;5.344;2023-12-07T14:24:36;4.60;99.90
12901;DHT22;6518;50.930;5.344;2023-12-07T14:27:04;4.50;99.90
12901;DHT22;6518;50.930;5.344;2023-12-07T14:29:31;4.50;99.90
12901;DHT22;6518;50.930;5.344;2023-12-07T14:31:59;4.50;99.90
12901;DHT22;6518;50.930;5.344;2023-12-07T14:34:28;4.50;99.90
12901;DHT22;6518;50.930;5.344;2023-12-07T14:36:55;4.40;99.90
12901;DHT22;6518;50.930;5.344;2023-12-07T14:39:22;4.40;99.90
12901;DHT22;6518;50.930;5.344;2023-12-07T14:41:49;4.40;99.90
12901;DHT22;6518;50.930;5.344;2023-12-07T14:44:18;4.40;99.90
12901;DHT22;6518;50.930;5.344;2023-12-07T14:46:46;4.40;99.90
12901;DHT22;6518;50.930;5.344;2023-12-07T14:49:15;4.30;99.90
12901;DHT22;6518;50.930;5.344;2023-12-07T14:51:43;4.30;99.90
12901;DHT22;6518;50.930;5.344;2023-12-07T14:54:10;4.30;99.90
12901;DHT22;6518;50.930;5.344;2023-12-07T14:56:38;4.30;99.90
12901;DHT22;6518;50.930;5.344;2023-12-07T14:59:06;4.30;99.90
12901;DHT22;6518;50.930;5.344;2023-12-07T15:01:33;4.30;99.90
12901;DHT22;6518;50.930;5.344;2023-12-07T15:04:00;4.20;99.90
12901;DHT22;6518;50.930;5.344;2023-12-07T15:06:27;4.20;99.90
12901;DHT22;6518;50.930;5.344;2023-12-07T15:08:56;4.20;99.90
12901;DHT22;6518;50.930;5.344;2023-12-07T15:11:23;4.20;99.90
12901;DHT22;6518;50.930;5.344;2023-12-07T15:13:50;4.20;99.90
12901;DHT22;6518;50.930;5.344;2023-12-07T15:16:17;4.30;99.90
12901;DHT22;6518;50.930;5.344;2023-12-07T15:18:44;4.30;99.90
12901;DHT22;6518;50.930;5.344;2023-12-07T15:21:12;4.30;99.90
12901;DHT22;6518;50.930;5.344;2023-12-07T15:23:40;4.30;99.90
12901;DHT22;6518;50.930;5.344;2023-12-07T15:26:08;4.30;99.90
12901;DHT22;6518;50.930;5.344;2023-12-07T15:28:35;4.30;99.90
12901;DHT22;6518;50.930;5.344;2023-12-07T15:31:03;4.40;99.90
12901;DHT22;6518;50.930;5.344;2023-12-07T15:33:30;4.40;99.90
12901;DHT22;6518;50.930;5.344;2023-12-07T15:35:57;4.40;99.90
12901;DHT22;6518;50.930;5.344;2023-12-07T15:38:24;4.40;99.90
12901;DHT22;6518;50.930;5.344;2023-12-07T15:40:50;4.40;99.90
12901;DHT22;6518;50.930;5.344;2023-12-07T15:43:22;4.30;99.90
12901;DHT22;6518;50.930;5.344;2023-12-07T15:45:49;4.30;99.90
12901;DHT22;6518;50.930;5.344;2023-12-07T15:48:16;4.30;99.90
12901;DHT22;6518;50.930;5.344;2023-12-07T15:50:44;4.30;99.90
12901;DHT22;6518;50.930;5.344;2023-12-07T15:53:12;4.20;99.90
12901;DHT22;6518;50.930;5.344;2023-12-07T15:55:38;4.20;99.90
12901;DHT22;6518;50.930;5.344;2023-12-07T15:58:05;4.20;99.90
12901;DHT22;6518;50.930;5.344;2023-12-07T16:00:34;4.20;99.90
12901;DHT22;6518;50.930;5.344;2023-12-07T16:03:02;4.20;99.90
12901;DHT22;6518;50.930;5.344;2023-12-07T16:05:29;4.20;99.90